Time;durP1;ratioP1;P1;durP2;ratioP2;P2;SDS_P1;SDS_P2;PMS_P1;PMS_P2;Temp;Humidity;BMP_temperature;BMP_pressure;BME280_temperature;BME280_humidity;BME280_pressure;Samples;Min_cycle;Max_cycle;Signal;HPM_P1;HPM_P2
2023/12/30 00:00:09;;;;;;;1.73;1.40;;;;;;;8.99;67.93;96547.19;4976070;28;20089;-78
2023/12/30 00:02:46;;;;;;;1.13;1.08;;;;;;;8.97;68.31;96539.53;4975863;28;20061;-78
2023/12/30 00:05:16;;;;;;;1.60;1.40;;;;;;;8.98;69.21;96538.56;4993032;28;20075;-78
2023/12/30 00:07:45;;;;;;;1.45;1.27;;;;;;;8.98;69.16;96538.56;4997288;28;20047;-78
2023/12/30 00:10:13;;;;;;;2.30;1.27;;;;;;;8.98;68.38;96545.56;4996011;28;20047;-78
2023/12/30 00:12:40;;;;;;;2.90;1.48;;;;;;;8.98;68.47;96556.75;4985362;28;20047;-78
2023/12/30 00:15:09;;;;;;;1.40;1.30;;;;;;;8.97;67.77;96556.97;4994859;28;20283;-77
2023/12/30 00:17:36;;;;;;;2.13;1.40;;;;;;;8.98;67.40;96559.38;4996010;28;20078;-78
2023/12/30 00:20:06;;;;;;;0.98;0.93;;;;;;;8.99;68.77;96555.78;4994684;28;20271;-78
2023/12/30 00:22:35;;;;;;;1.60;1.40;;;;;;;9.02;68.66;96563.25;4976174;28;20069;-78
2023/12/30 00:25:02;;;;;;;1.70;1.60;;;;;;;9.02;67.49;96559.84;4976276;28;20082;-78
2023/12/30 00:27:30;;;;;;;2.03;1.48;;;;;;;9.03;67.80;96553.63;4975548;28;20051;-78
2023/12/30 00:29:57;;;;;;;2.10;1.67;;;;;;;9.00;66.44;96560.00;4974831;28;20054;-78
2023/12/30 00:32:25;;;;;;;2.55;1.33;;;;;;;8.99;67.04;96557.59;4974930;28;20053;-78
2023/12/30 00:34:52;;;;;;;2.13;1.58;;;;;;;8.97;66.12;96556.97;4975343;28;20058;-78
2023/12/30 00:37:20;;;;;;;1.98;1.52;;;;;;;8.97;66.95;96570.75;4975539;28;20051;-78
2023/12/30 00:39:49;;;;;;;1.50;1.38;;;;;;;9.00;66.97;96565.22;4975750;28;20447;-78
2023/12/30 00:42:17;;;;;;;2.25;1.60;;;;;;;9.03;68.37;96564.88;4975104;28;20042;-78
2023/12/30 00:44:44;;;;;;;2.83;1.55;;;;;;;9.04;68.36;96563.88;4974948;28;20055;-78
2023/12/30 00:47:12;;;;;;;2.88;1.58;;;;;;;9.04;67.44;96550.88;4974895;28;20078;-78
2023/12/30 00:49:40;;;;;;;2.13;1.90;;;;;;;9.08;69.64;96546.16;4974997;28;20493;-78
2023/12/30 00:52:08;;;;;;;1.92;1.35;;;;;;;9.09;68.54;96547.75;4974370;28;20512;-78
2023/12/30 00:54:36;;;;;;;2.50;1.70;;;;;;;9.13;69.31;96553.44;4974891;28;20051;-78
2023/12/30 00:57:15;;;;;;;2.42;1.90;;;;;;;9.16;70.33;96553.06;4974553;28;20106;-78
2023/12/30 00:59:43;;;;;;;3.20;1.90;;;;;;;9.19;69.96;96552.75;4974632;28;20050;-78
2023/12/30 01:02:11;;;;;;;1.70;1.48;;;;;;;9.16;69.94;96537.44;4974225;28;20054;-78
2023/12/30 01:04:38;;;;;;;3.88;1.80;;;;;;;9.13;69.91;96538.63;4974850;28;20054;-78
2023/12/30 01:07:06;;;;;;;4.18;1.95;;;;;;;9.13;71.85;96545.63;4974542;28;20085;-78
2023/12/30 01:09:33;;;;;;;1.80;1.60;;;;;;;9.14;71.42;96542.84;4974368;28;20559;-78
2023/12/30 01:12:01;;;;;;;1.83;1.70;;;;;;;9.13;70.58;96527.41;4973749;28;20075;-78
2023/12/30 01:14:30;;;;;;;2.10;1.83;;;;;;;9.12;71.30;96530.97;4974544;28;20339;-79
2023/12/30 01:16:58;;;;;;;2.08;1.58;;;;;;;9.08;70.25;96531.34;4974135;28;20133;-78
2023/12/30 01:19:26;;;;;;;1.85;1.40;;;;;;;9.07;68.74;96532.34;4974544;28;20097;-78
2023/12/30 01:21:53;;;;;;;2.17;1.35;;;;;;;9.05;68.97;96526.50;4974586;28;20051;-78
2023/12/30 01:24:21;;;;;;;1.95;1.50;;;;;;;9.06;68.77;96530.69;4975043;28;20058;-78
2023/12/30 01:26:49;;;;;;;2.88;1.67;;;;;;;9.06;67.94;96537.69;4974222;28;20074;-78
2023/12/30 01:29:16;;;;;;;2.58;1.40;;;;;;;9.06;68.12;96533.28;4973917;28;20088;-78
2023/12/30 01:31:46;;;;;;;2.65;1.30;;;;;;;9.10;68.19;96532.97;4973683;28;20221;-78
2023/12/30 01:34:14;;;;;;;1.23;1.10;;;;;;;9.11;67.99;96534.56;4973858;28;20057;-78
2023/12/30 01:36:42;;;;;;;11.60;1.65;;;;;;;9.12;68.41;96539.63;4974170;28;20133;-78
2023/12/30 01:39:09;;;;;;;1.50;1.40;;;;;;;9.15;69.86;96546.25;4974017;28;20543;-78
2023/12/30 01:41:37;;;;;;;2.53;1.55;;;;;;;9.17;68.26;96549.50;4973408;28;20129;-78
2023/12/30 01:44:04;;;;;;;1.67;1.50;;;;;;;9.19;68.02;96555.34;4973695;28;20109;-78
2023/12/30 01:46:32;;;;;;;1.40;1.30;;;;;;;9.20;68.54;96554.34;4973775;28;20489;-79
2023/12/30 01:49:02;;;;;;;1.95;1.13;;;;;;;9.23;68.68;96556.63;4973625;28;20504;-78
2023/12/30 01:51:30;;;;;;;1.55;1.40;;;;;;;9.24;68.29;96553.00;4973176;28;20053;-78
2023/12/30 01:53:58;;;;;;;1.77;1.25;;;;;;;9.26;67.96;96553.66;4973627;28;20590;-78
2023/12/30 01:56:28;;;;;;;1.48;1.38;;;;;;;9.26;68.09;96549.25;4973125;28;20055;-78
2023/12/30 01:58:56;;;;;;;1.85;1.33;;;;;;;9.27;68.05;96560.47;4973752;28;20047;-78
2023/12/30 02:01:27;;;;;;;1.83;1.38;;;;;;;9.29;67.84;96563.69;4973130;28;20204;-79
2023/12/30 02:03:54;;;;;;;1.63;1.30;;;;;;;9.28;68.23;96562.09;4973497;28;20047;-78
2023/12/30 02:06:23;;;;;;;2.95;1.30;;;;;;;9.29;68.77;96566.31;4973393;28;20047;-78
2023/12/30 02:08:51;;;;;;;1.65;1.27;;;;;;;9.30;68.11;96565.34;4973347;28;20061;-78
2023/12/30 02:11:18;;;;;;;2.28;1.50;;;;;;;9.31;68.10;96571.34;4972952;28;20469;-78
2023/12/30 02:13:46;;;;;;;1.58;1.48;;;;;;;9.32;67.71;96579.00;4973508;28;20149;-78
2023/12/30 02:16:14;;;;;;;1.58;1.23;;;;;;;9.32;67.65;96578.19;4973327;28;20051;-77
2023/12/30 02:18:41;;;;;;;2.35;1.83;;;;;;;9.31;68.00;96576.56;4973386;28;20066;-78
2023/12/30 02:21:09;;;;;;;1.75;1.30;;;;;;;9.34;67.95;96581.44;4973100;28;20082;-78
2023/12/30 02:23:38;;;;;;;1.52;1.30;;;;;;;9.33;67.50;96583.19;4973431;28;20101;-78
2023/12/30 02:26:06;;;;;;;2.63;1.50;;;;;;;9.34;68.47;96597.84;4973511;28;20055;-78
2023/12/30 02:28:34;;;;;;;1.30;1.10;;;;;;;9.35;67.63;96590.84;4973552;28;20129;-78
2023/12/30 02:31:03;;;;;;;1.45;1.35;;;;;;;9.35;66.61;96593.44;4973398;28;20496;-78
2023/12/30 02:33:31;;;;;;;1.73;1.42;;;;;;;9.32;67.07;96592.00;4973168;28;20560;-78
2023/12/30 02:35:59;;;;;;;1.88;1.52;;;;;;;9.33;68.08;96606.63;4973077;28;20436;-78
2023/12/30 02:38:27;;;;;;;1.35;1.20;;;;;;;9.31;67.07;96595.56;4973224;28;20050;-78
2023/12/30 02:40:55;;;;;;;1.40;1.30;;;;;;;9.30;67.19;96604.38;4973992;28;20141;-78
2023/12/30 02:43:25;;;;;;;1.88;1.40;;;;;;;9.30;67.83;96595.78;4973335;28;20066;-78
2023/12/30 02:45:55;;;;;;;2.78;1.45;;;;;;;9.29;68.07;96592.34;4973139;28;20050;-78
2023/12/30 02:48:22;;;;;;;5.00;1.80;;;;;;;9.27;67.49;96592.53;4972946;28;20055;-78
2023/12/30 02:50:50;;;;;;;1.25;1.15;;;;;;;9.24;67.98;96592.06;4973091;28;20050;-78
2023/12/30 02:53:18;;;;;;;1.73;1.45;;;;;;;9.23;67.37;96593.84;4973053;28;20243;-78
2023/12/30 02:55:45;;;;;;;1.55;1.23;;;;;;;9.23;68.02;96593.06;4976667;28;20050;-79
2023/12/30 02:58:14;;;;;;;1.50;1.40;;;;;;;9.24;66.94;96597.25;4976467;28;20575;-78
2023/12/30 03:00:42;;;;;;;1.77;1.60;;;;;;;9.23;67.16;96598.25;4976413;28;20058;-78
2023/12/30 03:03:09;;;;;;;2.45;2.13;;;;;;;9.23;67.35;96593.06;4976410;28;20051;-78
2023/12/30 03:05:37;;;;;;;3.47;1.70;;;;;;;9.23;67.03;96598.25;4976829;28;20046;-78
2023/12/30 03:08:05;;;;;;;2.25;1.20;;;;;;;9.23;67.33;96595.66;4976472;28;20059;-79
2023/12/30 03:10:32;;;;;;;1.60;1.50;;;;;;;9.24;67.81;96607.69;4976377;28;20138;-78
2023/12/30 03:13:00;;;;;;;1.30;1.20;;;;;;;9.23;68.45;96603.47;4976749;28;20444;-78
2023/12/30 03:15:29;;;;;;;1.70;1.50;;;;;;;9.23;67.64;96606.06;4976042;28;20051;-78
2023/12/30 03:17:57;;;;;;;2.10;1.50;;;;;;;9.22;68.00;96613.03;4976229;28;20078;-78
2023/12/30 03:20:25;;;;;;;2.67;1.70;;;;;;;9.22;68.25;96614.84;4976221;28;20050;-78
2023/12/30 03:22:52;;;;;;;3.13;1.40;;;;;;;9.21;67.85;96623.66;4976073;28;20451;-78
2023/12/30 03:25:20;;;;;;;1.20;1.20;;;;;;;9.20;68.44;96622.00;4975784;28;20146;-78
2023/12/30 03:27:47;;;;;;;1.85;1.70;;;;;;;9.19;67.28;96636.03;4975767;28;20511;-78
2023/12/30 03:30:15;;;;;;;2.28;1.77;;;;;;;9.16;67.35;96631.97;4975695;28;20432;-78
2023/12/30 03:32:44;;;;;;;1.65;1.17;;;;;;;9.13;67.76;96634.91;4975706;28;20049;-78
2023/12/30 03:35:12;;;;;;;1.98;1.80;;;;;;;9.05;67.08;96624.53;4975842;28;20424;-78
2023/12/30 03:37:39;;;;;;;1.88;1.50;;;;;;;9.02;67.99;96635.28;4975988;28;20094;-78
2023/12/30 03:40:08;;;;;;;3.22;1.52;;;;;;;8.99;67.94;96644.25;4975797;28;20497;-79
2023/12/30 03:42:36;;;;;;;3.65;1.73;;;;;;;8.99;68.64;96633.84;4975605;28;20055;-78
2023/12/30 03:45:05;;;;;;;1.50;1.23;;;;;;;8.99;67.60;96628.66;4976022;28;20085;-78
2023/12/30 03:47:32;;;;;;;2.17;1.45;;;;;;;8.98;68.71;96628.81;4975822;28;20406;-79
2023/12/30 03:50:01;;;;;;;2.60;1.50;;;;;;;8.99;69.69;96633.84;4975884;28;20057;-79
2023/12/30 03:52:30;;;;;;;1.85;1.50;;;;;;;9.02;69.07;96636.09;4975453;28;20050;-78
2023/12/30 03:54:57;;;;;;;2.95;1.27;;;;;;;9.02;67.88;96641.31;4975416;28;20055;-78
2023/12/30 03:57:26;;;;;;;1.40;1.27;;;;;;;9.03;68.01;96634.28;4976188;28;20122;-78
2023/12/30 03:59:53;;;;;;;3.30;1.27;;;;;;;9.02;67.59;96636.09;4975881;28;20061;-79
2023/12/30 04:02:21;;;;;;;2.50;1.20;;;;;;;9.01;67.22;96634.50;4975267;28;20042;-79
2023/12/30 04:04:49;;;;;;;3.50;1.23;;;;;;;9.02;68.50;96632.69;4974870;28;20097;-78
2023/12/30 04:07:18;;;;;;;2.58;1.33;;;;;;;9.02;67.52;96627.50;4975323;28;20106;-78
2023/12/30 04:09:45;;;;;;;1.20;1.10;;;;;;;9.00;67.89;96632.84;4975524;28;20054;-78
2023/12/30 04:12:13;;;;;;;1.10;1.05;;;;;;;9.00;68.19;96638.06;4975525;28;20055;-79
2023/12/30 04:14:41;;;;;;;1.35;1.20;;;;;;;9.00;67.54;96642.47;4975336;28;20051;-78
2023/12/30 04:17:08;;;;;;;1.40;1.30;;;;;;;9.01;69.26;96634.50;4975302;28;20081;-79
2023/12/30 04:19:36;;;;;;;2.17;1.00;;;;;;;9.01;67.38;96631.88;4975106;28;20090;-78
2023/12/30 04:22:04;;;;;;;2.92;1.52;;;;;;;8.99;66.88;96646.84;4974884;28;20050;-78
2023/12/30 04:24:33;;;;;;;2.58;1.63;;;;;;;8.99;67.03;96646.06;4975649;28;20138;-78
2023/12/30 04:27:00;;;;;;;1.33;1.23;;;;;;;8.97;67.43;96638.41;4975808;28;20054;-78
2023/12/30 04:29:28;;;;;;;4.20;1.08;;;;;;;8.97;67.31;96653.22;4975493;28;20134;-79
2023/12/30 04:31:56;;;;;;;1.67;1.35;;;;;;;8.95;67.25;96653.38;4975110;28;20051;-78
2023/12/30 04:34:24;;;;;;;2.30;1.42;;;;;;;8.94;67.87;96653.53;4974946;28;20051;-79
2023/12/30 04:36:51;;;;;;;1.77;1.23;;;;;;;8.91;67.66;96644.28;4974854;28;20050;-78
2023/12/30 04:39:19;;;;;;;3.28;1.25;;;;;;;8.91;67.35;96641.69;4996418;28;20093;-78
2023/12/30 04:41:48;;;;;;;2.53;1.20;;;;;;;8.90;68.36;96655.69;4996864;28;20106;-79
2023/12/30 04:44:15;;;;;;;1.23;1.13;;;;;;;8.90;68.44;96647.88;4997152;28;20071;-78
2023/12/30 04:46:43;;;;;;;2.78;1.25;;;;;;;8.85;67.97;96651.00;4978371;28;20325;-78
2023/12/30 04:49:11;;;;;;;1.80;1.33;;;;;;;8.84;67.90;96653.75;4976639;28;20061;-79
2023/12/30 04:51:39;;;;;;;1.00;1.00;;;;;;;8.86;70.20;96657.00;4975505;28;20051;-79
2023/12/30 04:54:06;;;;;;;1.60;1.13;;;;;;;8.87;68.72;96648.22;4975208;28;20129;-79
2023/12/30 04:56:34;;;;;;;1.75;1.02;;;;;;;8.88;68.51;96655.03;4974539;28;20141;-78
2023/12/30 04:59:03;;;;;;;1.63;1.15;;;;;;;8.89;69.39;96677.47;4974824;28;20141;-79
2023/12/30 05:01:31;;;;;;;1.92;1.15;;;;;;;8.90;68.80;96671.28;4974367;28;20078;-79
2023/12/30 05:03:59;;;;;;;1.75;1.00;;;;;;;8.90;69.72;96679.09;4974715;28;20054;-78
2023/12/30 05:06:27;;;;;;;3.28;1.38;;;;;;;8.92;70.59;96681.50;4974687;28;20050;-78
2023/12/30 05:08:54;;;;;;;2.22;1.17;;;;;;;8.92;70.17;96687.56;4974636;28;20134;-78
2023/12/30 05:11:23;;;;;;;2.45;1.20;;;;;;;8.89;69.86;96677.47;4974433;28;20090;-78
2023/12/30 05:13:51;;;;;;;1.90;1.10;;;;;;;8.87;70.23;96689.81;4974709;28;20054;-78
2023/12/30 05:16:20;;;;;;;3.10;1.05;;;;;;;8.85;70.71;96677.00;4978485;28;20496;-78
2023/12/30 05:18:48;;;;;;;3.13;1.40;;;;;;;8.85;72.39;96687.41;4996603;28;20065;-79
2023/12/30 05:21:16;;;;;;;1.58;1.20;;;;;;;8.85;72.17;96682.22;4995239;28;20051;-79
2023/12/30 05:23:44;;;;;;;1.75;1.05;;;;;;;8.86;72.78;96688.22;4995043;28;20043;-78
2023/12/30 05:26:13;;;;;;;3.00;1.40;;;;;;;8.86;72.74;96693.41;4977623;28;20074;-79
2023/12/30 05:28:41;;;;;;;2.00;1.20;;;;;;;8.83;73.05;96691.13;4974730;28;20057;-79
2023/12/30 05:31:08;;;;;;;1.85;1.20;;;;;;;8.82;72.93;96686.94;4974431;28;20082;-79
2023/12/30 05:33:37;;;;;;;1.88;1.10;;;;;;;8.82;73.85;96692.94;4974058;28;20050;-78
2023/12/30 05:36:06;;;;;;;2.22;1.40;;;;;;;8.81;73.09;96690.50;4974167;28;20043;-79
2023/12/30 05:38:33;;;;;;;2.25;1.00;;;;;;;8.79;73.26;96695.06;4974169;28;20078;-79
2023/12/30 05:41:01;;;;;;;1.42;1.33;;;;;;;8.80;74.55;96694.09;4974370;28;20109;-78
2023/12/30 05:43:28;;;;;;;1.35;1.15;;;;;;;8.81;75.10;96693.09;4973726;28;20603;-79
2023/12/30 05:45:56;;;;;;;3.00;1.23;;;;;;;8.83;74.15;96693.75;4973782;28;20504;-78
2023/12/30 05:48:23;;;;;;;2.78;1.90;;;;;;;8.83;74.85;96698.94;4974011;28;20047;-79
2023/12/30 05:50:52;;;;;;;3.90;1.90;;;;;;;8.83;75.96;96697.19;4988360;28;20058;-79
2023/12/30 05:53:20;;;;;;;2.83;1.75;;;;;;;8.88;76.76;96691.47;4990948;28;20115;-79
2023/12/30 05:55:47;;;;;;;1.60;1.50;;;;;;;8.89;75.88;96697.47;4991556;28;20085;-79
2023/12/30 05:58:15;;;;;;;3.40;1.35;;;;;;;8.88;76.08;96696.66;4988931;28;20054;-79
2023/12/30 06:00:42;;;;;;;2.40;1.10;;;;;;;8.89;75.57;96692.28;4988339;28;20085;-79
2023/12/30 06:03:10;;;;;;;2.35;1.20;;;;;;;8.87;74.91;96698.44;4987985;28;20055;-79
2023/12/30 06:05:38;;;;;;;3.30;1.40;;;;;;;8.87;76.42;96697.63;4990559;28;20508;-80
2023/12/30 06:08:07;;;;;;;1.10;0.95;;;;;;;8.85;76.20;96707.38;4990093;28;20051;-79
2023/12/30 06:10:34;;;;;;;2.30;1.10;;;;;;;8.85;76.08;96707.38;4976036;28;20065;-79
2023/12/30 06:13:02;;;;;;;2.88;1.52;;;;;;;8.87;76.45;96708.84;4973707;28;20058;-79
2023/12/30 06:15:30;;;;;;;2.40;1.30;;;;;;;8.86;75.26;96703.81;4973677;28;20085;-79
2023/12/30 06:17:58;;;;;;;1.92;1.42;;;;;;;8.86;75.34;96709.03;4973467;28;20500;-79
2023/12/30 06:20:25;;;;;;;2.10;1.50;;;;;;;8.89;76.79;96713.06;4974061;28;20564;-79
2023/12/30 06:22:53;;;;;;;2.63;1.48;;;;;;;8.90;76.62;96717.28;4973130;28;20047;-78
2023/12/30 06:25:22;;;;;;;2.25;1.17;;;;;;;8.93;77.13;96717.78;4973451;28;20576;-78
2023/12/30 06:27:49;;;;;;;1.35;1.10;;;;;;;8.93;77.11;96709.16;4973713;28;20101;-78
2023/12/30 06:30:17;;;;;;;1.90;1.10;;;;;;;8.94;78.02;96708.97;4977245;28;20550;-79
2023/12/30 06:32:45;;;;;;;3.70;1.35;;;;;;;8.96;77.62;96711.41;4977065;28;20512;-78
2023/12/30 06:35:12;;;;;;;1.85;1.50;;;;;;;8.96;78.34;96708.81;4977151;28;20118;-78
2023/12/30 06:37:40;;;;;;;2.90;1.52;;;;;;;8.96;76.79;96706.22;4977219;28;20055;-79
2023/12/30 06:40:09;;;;;;;1.80;1.40;;;;;;;8.93;75.53;96712.56;4977616;28;20464;-78
2023/12/30 06:42:38;;;;;;;2.65;1.25;;;;;;;8.93;77.02;96715.16;4977332;28;20054;-79
2023/12/30 06:45:07;;;;;;;2.97;1.55;;;;;;;8.93;76.85;96719.56;4977272;28;20051;-78
2023/12/30 06:47:36;;;;;;;2.22;1.10;;;;;;;8.92;76.08;96713.56;4977578;28;20082;-79
2023/12/30 06:50:04;;;;;;;2.28;1.40;;;;;;;8.90;77.06;96712.91;4977000;28;20055;-78
2023/12/30 06:52:31;;;;;;;2.67;1.30;;;;;;;8.89;76.58;96703.47;4976536;28;20047;-78
2023/12/30 06:54:59;;;;;;;0.98;0.90;;;;;;;8.87;75.71;96708.03;4977388;28;20472;-78
2023/12/30 06:57:43;;;;;;;1.33;1.00;;;;;;;8.86;76.98;96703.81;4976801;28;20183;-78
2023/12/30 07:00:11;;;;;;;2.40;1.20;;;;;;;8.90;76.70;96714.69;4976677;28;20599;-78
2023/12/30 07:02:41;;;;;;;1.38;0.90;;;;;;;8.89;76.36;96713.88;4976374;28;20054;-78
2023/12/30 07:05:08;;;;;;;2.17;1.20;;;;;;;8.89;77.67;96721.69;4976959;28;20130;-79
2023/12/30 07:07:36;;;;;;;3.03;1.42;;;;;;;8.91;78.03;96732.75;4976877;28;20074;-79
2023/12/30 07:10:05;;;;;;;1.50;0.93;;;;;;;8.92;77.78;96731.78;4976681;28;20057;-78
2023/12/30 07:12:32;;;;;;;1.45;1.20;;;;;;;8.92;78.16;96734.38;4976199;28;20051;-79
2023/12/30 07:15:01;;;;;;;1.20;0.90;;;;;;;8.95;79.08;96744.44;4976162;28;20501;-79
2023/12/30 07:17:29;;;;;;;0.93;0.65;;;;;;;8.94;77.05;96747.19;4976605;28;20055;-79
2023/12/30 07:19:58;;;;;;;2.28;0.90;;;;;;;8.95;77.93;96744.44;4976826;28;20054;-79
2023/12/30 07:22:26;;;;;;;0.80;0.80;;;;;;;8.97;78.99;96744.28;4976063;28;20059;-79
2023/12/30 07:24:53;;;;;;;2.13;0.88;;;;;;;8.98;78.92;96751.09;4976298;28;20656;-79
2023/12/30 07:27:21;;;;;;;1.67;1.25;;;;;;;8.98;79.42;96751.91;4976458;28;20065;-79
2023/12/30 07:29:49;;;;;;;2.40;0.60;;;;;;;9.00;78.64;96757.75;4976800;28;20093;-78
2023/12/30 07:32:18;;;;;;;1.20;0.60;;;;;;;9.01;78.95;96761.19;4976338;28;20134;-78
2023/12/30 07:34:45;;;;;;;1.63;0.70;;;;;;;9.01;78.22;96758.56;4976445;28;20500;-78
2023/12/30 07:37:13;;;;;;;1.63;0.57;;;;;;;9.01;78.13;96761.97;4976426;28;20142;-79
2023/12/30 07:39:40;;;;;;;1.20;0.75;;;;;;;9.01;78.35;96761.97;4975828;28;20046;-78
2023/12/30 07:42:08;;;;;;;1.13;0.60;;;;;;;9.02;78.68;96766.19;4975857;28;20053;-78
2023/12/30 07:44:37;;;;;;;0.90;0.80;;;;;;;9.04;79.08;96768.63;4976154;28;20047;-78
2023/12/30 07:47:06;;;;;;;1.30;1.20;;;;;;;9.06;79.20;96764.09;4975959;28;20050;-78
2023/12/30 07:49:36;;;;;;;2.80;0.73;;;;;;;9.07;79.49;96766.53;4976439;28;20050;-78
2023/12/30 07:52:04;;;;;;;2.08;0.73;;;;;;;9.06;79.44;96762.28;4975675;28;20151;-78
2023/12/30 07:54:32;;;;;;;0.75;0.60;;;;;;;9.06;78.54;96777.09;4975927;28;20057;-78
2023/12/30 07:56:59;;;;;;;1.25;0.80;;;;;;;9.04;78.21;96772.03;4975691;28;20308;-78
2023/12/30 07:59:27;;;;;;;3.47;2.28;;;;;;;9.02;78.60;96766.19;4977230;28;20543;-78
2023/12/30 08:01:56;;;;;;;14.80;7.10;;;;;;;9.04;79.29;96766.84;4975429;28;20102;-78
2023/12/30 08:04:24;;;;;;;30.80;16.00;;;;;;;9.04;79.73;96769.44;4980418;28;20089;-79
2023/12/30 08:06:54;;;;;;;5.03;2.40;;;;;;;9.03;79.26;96773.03;4975922;28;20050;-79
2023/12/30 08:09:22;;;;;;;9.98;4.65;;;;;;;9.02;79.58;96770.59;4975423;28;20090;-78
2023/12/30 08:11:50;;;;;;;3.88;1.27;;;;;;;9.02;79.29;96773.19;4976233;28;20142;-79
2023/12/30 08:14:29;;;;;;;3.30;1.20;;;;;;;9.04;79.62;96773.84;4975438;28;20054;-78
2023/12/30 08:16:58;;;;;;;2.63;0.95;;;;;;;9.04;79.29;96769.44;4975081;28;20086;-78
2023/12/30 08:19:26;;;;;;;2.55;1.30;;;;;;;9.05;79.26;96770.25;4975182;28;20428;-78
2023/12/30 08:21:55;;;;;;;2.08;1.05;;;;;;;9.06;79.57;96780.50;4975309;28;20051;-78
2023/12/30 08:24:23;;;;;;;2.55;1.10;;;;;;;9.10;79.46;96769.78;4975636;28;20093;-79
2023/12/30 08:26:50;;;;;;;2.50;1.15;;;;;;;9.12;79.27;96775.59;4977537;28;20083;-79
2023/12/30 08:29:18;;;;;;;1.88;1.10;;;;;;;9.16;80.07;96776.88;4977504;28;20105;-78
2023/12/30 08:31:46;;;;;;;1.80;1.13;;;;;;;9.18;80.18;96780.97;4977586;28;20054;-79
2023/12/30 08:34:14;;;;;;;3.08;1.10;;;;;;;9.20;80.09;96788.59;4978422;28;20507;-78
2023/12/30 08:36:43;;;;;;;4.03;1.42;;;;;;;9.22;80.76;96797.84;4978115;28;20105;-79
2023/12/30 08:39:12;;;;;;;2.25;1.10;;;;;;;9.24;80.77;96792.47;4979901;28;20054;-79
2023/12/30 08:41:41;;;;;;;1.42;1.08;;;;;;;9.26;80.83;96788.72;4978324;28;20053;-78
2023/12/30 08:44:09;;;;;;;13.93;8.15;;;;;;;9.27;80.32;96785.16;4978984;28;20476;-79
2023/12/30 08:46:36;;;;;;;14.30;6.78;;;;;;;9.27;80.38;96771.31;4979426;28;20129;-79
2023/12/30 08:49:04;;;;;;;35.25;20.95;;;;;;;9.28;80.22;96780.75;4979120;28;20067;-79
2023/12/30 08:51:37;;;;;;;16.85;10.13;;;;;;;9.28;80.18;96780.75;4976996;28;20057;-79
2023/12/30 08:54:05;;;;;;;49.22;26.38;;;;;;;9.32;80.30;96786.44;4977662;28;20057;-79
2023/12/30 08:56:35;;;;;;;29.85;16.95;;;;;;;9.35;81.01;96780.88;4977496;28;20094;-78
2023/12/30 08:59:02;;;;;;;10.43;6.45;;;;;;;9.37;81.17;96789.34;4977725;28;20413;-79
2023/12/30 09:01:30;;;;;;;2.72;1.85;;;;;;;9.40;80.90;96784.63;4975189;28;20424;-78
2023/12/30 09:03:59;;;;;;;2.47;1.33;;;;;;;9.42;80.47;96787.88;4974779;28;20047;-78
2023/12/30 09:06:27;;;;;;;17.05;10.25;;;;;;;9.45;80.24;96791.91;4974426;28;20054;-79
2023/12/30 09:08:54;;;;;;;44.70;26.67;;;;;;;9.47;80.34;96790.75;4974797;28;20051;-79
2023/12/30 09:11:23;;;;;;;7.18;4.60;;;;;;;9.49;79.33;96788.78;4976094;28;20142;-79
2023/12/30 09:13:52;;;;;;;12.35;6.82;;;;;;;9.52;79.75;96792.84;4995392;28;20061;-79
2023/12/30 09:16:20;;;;;;;3.55;2.28;;;;;;;9.52;78.50;96798.06;4995802;28;20230;-79
2023/12/30 09:18:48;;;;;;;5.85;1.98;;;;;;;9.50;78.30;96789.59;4993372;28;20066;-79
2023/12/30 09:21:16;;;;;;;4.72;2.03;;;;;;;9.52;78.45;96799.84;4976431;28;20054;-79
2023/12/30 09:23:43;;;;;;;2.40;1.02;;;;;;;9.54;77.99;96809.13;4975450;28;20535;-79
2023/12/30 09:26:12;;;;;;;3.00;1.10;;;;;;;9.56;79.17;96814.16;4975012;28;20079;-79
2023/12/30 09:28:40;;;;;;;2.28;0.90;;;;;;;9.58;78.92;96817.41;4974557;28;20054;-79
2023/12/30 09:31:09;;;;;;;0.57;0.57;;;;;;;9.57;78.28;96813.16;4974106;28;20078;-78
2023/12/30 09:33:36;;;;;;;2.38;0.80;;;;;;;9.57;78.45;96816.59;4974079;28;20050;-79
2023/12/30 09:36:05;;;;;;;2.80;1.00;;;;;;;9.57;77.97;96823.59;4974498;28;20093;-78
2023/12/30 09:38:32;;;;;;;1.65;0.98;;;;;;;9.54;78.06;96816.94;4974670;28;20126;-79
2023/12/30 09:41:00;;;;;;;3.13;0.90;;;;;;;9.56;79.19;96824.59;4974800;28;20135;-79
2023/12/30 09:43:28;;;;;;;2.40;0.90;;;;;;;9.57;78.86;96819.19;4974121;28;20054;-79
2023/12/30 09:45:57;;;;;;;1.58;1.10;;;;;;;9.58;78.83;96818.22;4974199;28;20058;-78
2023/12/30 09:48:30;;;;;;;1.08;0.98;;;;;;;9.59;80.12;96819.81;4973822;28;20071;-79
2023/12/30 09:50:58;;;;;;;1.50;1.25;;;;;;;9.61;79.70;96828.28;4973800;28;20105;-78
2023/12/30 09:53:26;;;;;;;1.70;1.15;;;;;;;9.63;80.20;96822.91;4973326;28;20511;-79
2023/12/30 09:55:54;;;;;;;2.42;1.42;;;;;;;9.63;80.28;96815.09;4973919;28;20082;-78
2023/12/30 09:58:22;;;;;;;2.08;1.00;;;;;;;9.66;79.62;96809.53;4973333;28;20054;-79
2023/12/30 10:00:50;;;;;;;2.30;1.50;;;;;;;9.69;79.67;96804.00;4973617;28;20137;-79
2023/12/30 10:03:18;;;;;;;1.98;1.50;;;;;;;9.74;79.41;96808.69;4973185;28;20057;-78
2023/12/30 10:05:49;;;;;;;1.25;0.85;;;;;;;9.76;79.17;96810.16;4973331;28;20046;-78
2023/12/30 10:08:17;;;;;;;1.88;1.00;;;;;;;9.80;80.07;96816.63;4973404;28;20050;-79
2023/12/30 10:10:49;;;;;;;1.48;1.38;;;;;;;9.84;79.71;96817.13;4973319;28;20047;-79
2023/12/30 10:13:21;;;;;;;2.17;1.10;;;;;;;9.84;79.72;96817.94;4973362;28;20130;-79
2023/12/30 10:15:49;;;;;;;1.20;1.10;;;;;;;9.84;78.99;96811.91;4978254;28;20051;-78
2023/12/30 10:18:17;;;;;;;2.40;1.38;;;;;;;9.89;79.42;96813.00;4973855;28;20102;-78
2023/12/30 10:20:46;;;;;;;1.30;1.02;;;;;;;9.96;78.60;96807.09;4973543;28;20114;-78
2023/12/30 10:23:15;;;;;;;19.55;9.05;;;;;;;10.04;77.89;96807.06;4981448;28;20039;-78
2023/12/30 10:25:42;;;;;;;3.30;1.88;;;;;;;10.09;77.39;96805.53;4993199;28;20054;-78
2023/12/30 10:28:10;;;;;;;2.35;1.20;;;;;;;10.11;77.59;96808.78;4993472;28;20055;-78
2023/12/30 10:30:38;;;;;;;1.00;0.90;;;;;;;10.16;77.15;96810.06;4992071;28;20083;-78
2023/12/30 10:33:07;;;;;;;1.30;1.10;;;;;;;10.15;76.57;96814.47;4974377;28;20141;-79
2023/12/30 10:35:35;;;;;;;1.80;1.20;;;;;;;10.21;77.20;96803.34;4973654;28;20055;-79
2023/12/30 10:38:03;;;;;;;2.85;1.17;;;;;;;10.28;76.68;96796.44;4973485;28;20584;-78
2023/12/30 10:40:32;;;;;;;1.58;0.85;;;;;;;10.34;76.28;96805.38;4973439;28;20485;-78
2023/12/30 10:43:01;;;;;;;1.70;1.60;;;;;;;10.46;76.11;96804.00;4977044;28;20500;-79
2023/12/30 10:45:30;;;;;;;2.97;1.25;;;;;;;10.55;75.78;96807.34;4973323;28;20055;-79
2023/12/30 10:48:00;;;;;;;1.85;1.15;;;;;;;10.61;74.96;96809.25;4973036;28;20409;-79
2023/12/30 10:50:28;;;;;;;1.20;1.10;;;;;;;10.65;74.27;96804.50;4973475;28;20527;-79
2023/12/30 10:53:02;;;;;;;1.60;1.05;;;;;;;10.71;75.53;96801.16;4973279;28;20050;-78
2023/12/30 10:55:34;;;;;;;2.53;1.35;;;;;;;10.79;75.82;96795.88;4973442;28;20496;-79
2023/12/30 10:58:04;;;;;;;8.30;1.60;;;;;;;10.89;74.06;96796.44;4972751;28;20051;-78
2023/12/30 11:00:35;;;;;;;1.48;1.38;;;;;;;11.01;73.64;96777.72;4973201;28;20565;-79
2023/12/30 11:03:04;;;;;;;1.33;1.17;;;;;;;11.13;73.45;96787.53;4973078;28;20089;-79
2023/12/30 11:05:39;;;;;;;0.98;0.85;;;;;;;11.22;72.93;96785.63;4973605;28;20077;-78
2023/12/30 11:08:07;;;;;;;1.58;1.13;;;;;;;11.30;72.20;96788.16;4973165;28;20069;-78
2023/12/30 11:10:38;;;;;;;2.80;1.45;;;;;;;11.38;71.58;96789.06;4973033;28;20151;-79
2023/12/30 11:13:07;;;;;;;2.38;1.27;;;;;;;11.47;71.95;96783.53;4972608;28;20151;-78
2023/12/30 11:15:38;;;;;;;1.58;0.90;;;;;;;11.55;70.59;96793.09;4979492;28;20061;-79
2023/12/30 11:18:05;;;;;;;2.00;0.93;;;;;;;11.62;70.03;96796.56;4976664;28;20101;-78
2023/12/30 11:20:35;;;;;;;1.90;0.93;;;;;;;11.64;70.71;96793.78;4976260;28;20055;-79
2023/12/30 11:23:04;;;;;;;3.88;1.30;;;;;;;11.65;69.12;96800.63;4975862;28;20121;-79
2023/12/30 11:25:39;;;;;;;1.17;0.93;;;;;;;11.69;70.31;96796.66;4976412;28;20129;-78
2023/12/30 11:28:14;;;;;;;0.93;0.60;;;;;;;11.79;69.90;96797.19;4976228;28;20043;-79
2023/12/30 11:30:45;;;;;;;1.30;0.70;;;;;;;11.92;69.06;96797.34;4975874;28;20134;-79
2023/12/30 11:33:14;;;;;;;4.13;0.93;;;;;;;12.02;68.73;96781.34;4975459;28;20431;-79
2023/12/30 11:35:42;;;;;;;161.48;145.57;;;;;;;12.13;67.97;96780.88;4975905;28;20058;-79
2023/12/30 11:38:12;;;;;;;10.52;9.57;;;;;;;12.19;64.96;96786.34;4975695;28;20049;-79
2023/12/30 11:40:43;;;;;;;5.57;5.07;;;;;;;12.26;66.89;96777.53;4976085;28;20055;-79
2023/12/30 11:43:11;;;;;;;2.40;2.20;;;;;;;12.36;65.99;96777.25;4975637;28;20081;-79